Aérodrome :
LOGIN :

S'inscrire | Disclaimer

   EN    FR    IT 

 










Légende :    VFR   VFR Marginal   IFR   IFR Intensif   IFR Très Intensif
Visi : 
Plafond : 
>= 8 km
>= 3000ft
5 à 8 km
1000 à 3000 ft
1500m à 5 km
500 à 1000 ft
800 à 1500m
200 à 500 ft
< 800m
< 200 ft
Symboles :   Orages  Brouillard  Fortes neiges  Fortes précipitations  Vent > 20 kt
SIGMETs :   Divers  Orages  Givrage  Turbulence  Onde Orograph.  Cendres Volcan.






- Altitude de l'aérodrome : 200 ft


EBBL - Klein Brogel AB

DERNIER METAR :
  • 130655Z 15004KT 9999 -RA SCT007 BKN014 04/04 Q0972 GRN GRN TEMPO YLO

METARs EXPIRÉS :
  • 130625Z 13005KT 9999 -RA SCT007 BKN011 04/04 Q0972 GRN GRN TEMPO YLO
  • 130555Z 12004KT 4000 -RA SCT007 BKN011 04/04 Q0972 GRN GRN TEMPO YLO
  • 130548Z 10004KT 4000 -RA SCT007 BKN011 04/03 Q0972 GRN GRN TEMPO YLO
  • 130544Z AUTO 11004KT 4800 -RA OVC019/// 04/03 Q0972 GRN
  • 130455Z AUTO 12004KT 9999 -DZ FEW007/// BKN014/// OVC055/// 04/03 Q0973 GRN
  • 130425Z AUTO 13003KT 9999 OVC012/// 04/03 Q0974 GRN

TAF TAF EBBL
Valide du 13 à 07h jusqu'au 13 à 16h UTC


130541Z 1307/1316 15007KT 6000 -RA -DZ FEW005 BKN007 BKN012
BECMG 1311/1313 25007KT 9999 NSW SCT012 BKN018
TEMPO 1311/1316 27015G25KT 4000 SHRA RA SCT010 BKN015
BECMG 1314/1316 31015KT



MET'MAP, la Météo Aéronautique d'un coup d'oeil ! - Copyright ORBIFLY Décembre 2007 - Disclaimer

ORBIFLY MET'MAP TEAM :

Programmation & Développement : Alexandra Zaïnal
Sur une idée originale de : Baudouin d'Aumeries
Assistance à la programmation : Marc-Olivier Méhu
Soutien technique & logistique : Manuel Goepfert

Contact : metmap@orbifly.com




SOURCES & CREDITS :

   NOAA